Time;durP1;ratioP1;P1;durP2;ratioP2;P2;SDS_P1;SDS_P2;PMS_P1;PMS_P2;Temp;Humidity;BMP_temperature;BMP_pressure;BME280_temperature;BME280_humidity;BME280_pressure;Samples;Min_cycle;Max_cycle;Signal;HPM_P1;HPM_P2
2022/03/03 01:20:06;;;;;;;14.52;8.95;;;3.10;99.90;;;;;;4602120;23;20059;-86
2022/03/03 01:22:35;;;;;;;14.50;9.80;;;3.10;99.90;;;;;;4910241;29;20045;-87
2022/03/03 01:25:01;;;;;;;16.38;10.10;;;3.10;99.90;;;;;;4894958;29;20025;-87
2022/03/03 01:27:26;;;;;;;17.70;10.73;;;3.10;99.90;;;;;;4909716;29;20060;-87
2022/03/03 01:29:52;;;;;;;16.63;10.30;;;3.10;99.90;;;;;;4878506;29;20037;-87
2022/03/03 01:32:18;;;;;;;16.98;10.25;;;3.00;99.90;;;;;;4894419;29;20052;-87
2022/03/03 01:34:45;;;;;;;17.88;10.63;;;3.00;99.90;;;;;;4894540;29;20507;-86
2022/03/03 01:37:10;;;;;;;15.50;9.15;;;3.00;99.90;;;;;;4891210;29;20041;-92
2022/03/03 01:39:38;;;;;;;14.55;9.18;;;3.00;99.90;;;;;;4888076;29;20040;-88
2022/03/03 01:42:04;;;;;;;16.88;9.90;;;2.90;99.90;;;;;;4910838;29;20073;-87
2022/03/03 01:44:30;;;;;;;17.30;10.73;;;2.90;99.90;;;;;;4906339;29;20036;-86
2022/03/03 01:47:00;;;;;;;14.75;9.43;;;2.90;99.90;;;;;;4892830;29;20033;-88
2022/03/03 01:49:26;;;;;;;15.35;9.65;;;2.90;99.90;;;;;;4894104;29;20040;-88
2022/03/03 01:51:53;;;;;;;15.10;9.80;;;2.90;99.90;;;;;;4910665;29;20049;-89
2022/03/03 01:54:19;;;;;;;14.82;9.20;;;2.80;99.90;;;;;;4891464;29;20443;-88
2022/03/03 01:56:46;;;;;;;15.45;9.60;;;2.80;99.90;;;;;;4890406;29;20092;-88
2022/03/03 01:59:13;;;;;;;15.48;9.40;;;2.70;99.90;;;;;;4890337;29;20096;-90
2022/03/03 02:01:40;;;;;;;15.68;9.88;;;2.80;99.90;;;;;;4889831;29;20040;-88
2022/03/03 02:04:08;;;;;;;15.77;10.25;;;2.70;99.90;;;;;;4891294;29;20037;-89
2022/03/03 02:06:34;;;;;;;15.60;9.35;;;2.70;99.90;;;;;;4892143;29;20032;-87
2022/03/03 02:09:00;;;;;;;16.27;9.93;;;2.60;99.90;;;;;;4891306;29;20032;-88
2022/03/03 02:11:26;;;;;;;15.68;10.00;;;2.60;99.90;;;;;;4900154;23;20057;-87
2022/03/03 02:13:52;;;;;;;14.52;8.85;;;2.60;99.90;;;;;;4893833;29;20029;-87
2022/03/03 02:16:17;;;;;;;15.52;9.77;;;2.50;99.90;;;;;;4911095;29;20033;-87
2022/03/03 02:18:44;;;;;;;13.52;8.25;;;2.50;99.90;;;;;;4893750;29;20029;-88
2022/03/03 02:21:15;;;;;;;17.63;10.80;;;2.50;99.90;;;;;;4892415;29;20037;-87
2022/03/03 02:23:41;;;;;;;15.40;9.63;;;2.50;99.90;;;;;;4896495;29;20033;-88
2022/03/03 02:26:17;;;;;;;14.85;8.98;;;2.40;99.90;;;;;;4913159;29;20033;-87
2022/03/03 02:28:48;;;;;;;14.75;9.90;;;2.40;99.90;;;;;;4911959;29;20037;-87
2022/03/03 02:31:15;;;;;;;18.77;10.38;;;2.40;99.90;;;;;;4910886;29;20060;-86
2022/03/03 02:33:42;;;;;;;16.42;10.18;;;2.30;99.90;;;;;;4892782;29;20639;-91
2022/03/03 02:36:37;;;;;;;16.70;9.90;;;2.30;99.90;;;;;;4890481;29;20483;-87
2022/03/03 02:39:05;;;;;;;15.18;9.60;;;2.30;99.90;;;;;;4898820;29;20036;-88
2022/03/03 02:41:31;;;;;;;15.13;9.40;;;2.20;99.90;;;;;;4893511;29;20067;-86
2022/03/03 02:43:59;;;;;;;16.63;9.00;;;2.20;99.90;;;;;;4895842;29;20033;-87
2022/03/03 02:46:26;;;;;;;15.02;9.10;;;2.20;99.90;;;;;;4894728;29;20040;-86
2022/03/03 02:48:51;;;;;;;15.13;9.70;;;2.20;99.90;;;;;;4910497;29;20069;-87
2022/03/03 02:51:18;;;;;;;14.98;9.48;;;2.20;99.90;;;;;;4898059;29;20033;-86
2022/03/03 02:53:44;;;;;;;16.50;9.93;;;2.10;99.90;;;;;;4897679;29;20029;-86
2022/03/03 02:56:10;;;;;;;17.98;11.02;;;2.10;99.90;;;;;;4902989;29;20092;-89
2022/03/03 02:58:36;;;;;;;15.73;9.55;;;2.10;99.90;;;;;;4917456;29;20040;-87
2022/03/03 03:01:03;;;;;;;17.73;11.07;;;2.00;99.90;;;;;;4901726;29;20049;-86
2022/03/03 03:03:29;;;;;;;15.98;10.65;;;2.10;99.90;;;;;;4902469;29;20032;-88
2022/03/03 03:05:55;;;;;;;15.15;9.38;;;2.00;99.90;;;;;;4900019;29;20552;-87
2022/03/03 03:08:20;;;;;;;16.20;9.82;;;2.00;99.90;;;;;;4900616;29;20040;-88
2022/03/03 03:10:46;;;;;;;16.55;10.10;;;2.00;99.90;;;;;;4903195;29;20100;-87
2022/03/03 03:13:14;;;;;;;18.17;10.85;;;2.00;99.90;;;;;;4915560;29;20033;-86
2022/03/03 03:15:44;;;;;;;15.43;10.07;;;2.00;99.90;;;;;;4898040;29;20041;-87
2022/03/03 03:18:18;;;;;;;14.45;9.23;;;2.00;99.90;;;;;;4914228;29;20037;-87
2022/03/03 03:20:49;;;;;;;14.75;9.82;;;2.00;99.90;;;;;;4894915;29;20036;-87
2022/03/03 03:23:16;;;;;;;17.10;9.88;;;1.90;99.90;;;;;;4895240;29;20033;-87
2022/03/03 03:25:44;;;;;;;18.30;11.10;;;1.90;99.90;;;;;;4895911;29;20037;-90
2022/03/03 03:28:15;;;;;;;15.63;10.15;;;1.80;99.90;;;;;;4896692;29;20040;-89
2022/03/03 03:30:44;;;;;;;15.85;10.02;;;1.90;99.90;;;;;;4896821;29;20052;-87
2022/03/03 03:33:14;;;;;;;15.65;10.18;;;1.80;99.90;;;;;;4896970;29;20033;-86
2022/03/03 03:35:43;;;;;;;16.65;10.25;;;1.80;99.90;;;;;;4912089;29;20036;-88
2022/03/03 03:38:09;;;;;;;15.82;10.40;;;1.80;99.90;;;;;;4891253;29;20032;-91
2022/03/03 03:40:36;;;;;;;15.75;9.68;;;1.70;99.90;;;;;;4891532;29;20033;-88
2022/03/03 03:43:04;;;;;;;15.05;9.85;;;1.70;99.90;;;;;;4895362;29;20036;-89
2022/03/03 03:45:35;;;;;;;16.58;9.93;;;1.70;99.90;;;;;;4912150;29;20037;-87
2022/03/03 03:48:04;;;;;;;14.57;9.73;;;1.70;99.90;;;;;;4895858;29;20043;-87
2022/03/03 03:50:30;;;;;;;16.70;10.20;;;1.70;99.90;;;;;;4895556;29;20086;-88
2022/03/03 03:52:57;;;;;;;15.48;9.93;;;1.60;99.90;;;;;;4894679;29;20037;-88
2022/03/03 03:55:24;;;;;;;16.27;10.07;;;1.70;99.90;;;;;;4892817;29;20052;-90
2022/03/03 03:57:50;;;;;;;14.90;9.23;;;1.60;99.90;;;;;;4893218;29;20046;-89
2022/03/03 04:00:17;;;;;;;17.00;10.60;;;1.60;99.90;;;;;;4910736;29;20084;-88
2022/03/03 04:02:44;;;;;;;16.23;10.63;;;1.50;99.90;;;;;;4911156;29;20111;-91
2022/03/03 04:05:11;;;;;;;16.00;10.23;;;1.50;99.90;;;;;;4891345;29;20040;-90
2022/03/03 04:07:37;;;;;;;16.08;9.90;;;1.50;99.90;;;;;;4890557;29;20029;-90
2022/03/03 04:10:03;;;;;;;16.65;10.27;;;1.50;99.90;;;;;;4908736;29;20048;-90
2022/03/03 04:12:29;;;;;;;18.30;10.43;;;1.50;99.90;;;;;;4891129;29;20056;-90
2022/03/03 04:14:55;;;;;;;16.77;9.82;;;1.40;99.90;;;;;;4893865;29;20042;-87
2022/03/03 04:17:22;;;;;;;17.55;10.00;;;1.40;99.90;;;;;;4895319;29;20044;-88
2022/03/03 04:19:47;;;;;;;18.23;10.82;;;1.50;99.90;;;;;;4893865;29;20041;-88
2022/03/03 04:22:15;;;;;;;15.55;9.90;;;1.40;99.90;;;;;;4913391;29;20039;-87
2022/03/03 04:24:41;;;;;;;17.08;10.77;;;1.40;99.90;;;;;;4895721;29;20032;-87
2022/03/03 04:27:07;;;;;;;18.52;11.13;;;1.40;99.90;;;;;;4895246;29;20049;-86
2022/03/03 04:29:35;;;;;;;20.30;11.73;;;1.30;99.90;;;;;;4896074;29;20092;-87
2022/03/03 04:32:05;;;;;;;17.63;10.73;;;1.30;99.90;;;;;;4912069;29;20471;-86
2022/03/03 04:34:34;;;;;;;16.60;10.57;;;1.30;99.90;;;;;;4894834;29;20037;-87
2022/03/03 04:37:02;;;;;;;17.70;10.55;;;1.30;99.90;;;;;;4907997;29;20032;-89
2022/03/03 04:39:28;;;;;;;16.92;11.13;;;1.30;99.90;;;;;;4889335;29;20480;-89
2022/03/03 04:41:54;;;;;;;17.20;10.57;;;1.30;99.90;;;;;;4911009;29;20117;-88
2022/03/03 04:44:19;;;;;;;16.30;11.02;;;1.30;99.90;;;;;;4910314;29;20047;-87
2022/03/03 04:46:45;;;;;;;17.98;11.00;;;1.20;99.90;;;;;;4894475;29;20056;-88
2022/03/03 04:49:11;;;;;;;15.30;10.35;;;1.30;99.90;;;;;;4894247;29;20048;-88
2022/03/03 04:51:40;;;;;;;17.30;11.07;;;1.20;99.90;;;;;;4894833;29;20124;-88
2022/03/03 04:54:07;;;;;;;18.38;11.05;;;1.20;99.90;;;;;;4893828;29;20032;-90
2022/03/03 04:56:34;;;;;;;16.85;10.52;;;1.20;99.90;;;;;;4890992;29;20032;-89
2022/03/03 04:59:02;;;;;;;15.43;9.60;;;1.20;99.90;;;;;;4893343;29;20037;-87
2022/03/03 05:01:28;;;;;;;15.75;10.05;;;1.20;99.90;;;;;;4909393;29;20083;-89
2022/03/03 05:03:55;;;;;;;15.25;9.73;;;1.10;99.90;;;;;;4904968;29;20031;-90
2022/03/03 05:06:20;;;;;;;15.93;10.45;;;1.10;99.90;;;;;;4888371;29;20029;-90
2022/03/03 05:08:46;;;;;;;17.35;10.20;;;1.20;99.90;;;;;;4904003;29;20084;-90
2022/03/03 05:11:12;;;;;;;16.20;10.38;;;1.10;99.90;;;;;;4886719;29;20068;-93
2022/03/03 05:13:37;;;;;;;18.17;10.77;;;1.10;99.90;;;;;;4906497;29;20088;-89
2022/03/03 05:16:04;;;;;;;15.32;9.57;;;1.10;99.90;;;;;;4911352;29;20039;-91
2022/03/03 05:18:30;;;;;;;16.02;10.02;;;1.00;99.90;;;;;;4893310;29;20068;-89
2022/03/03 05:21:00;;;;;;;15.25;9.70;;;1.00;99.90;;;;;;4892714;29;20037;-88
2022/03/03 05:23:26;;;;;;;15.18;9.30;;;1.00;99.90;;;;;;4893474;29;20047;-87
2022/03/03 05:25:56;;;;;;;17.40;10.30;;;1.00;99.90;;;;;;4908577;29;20032;-89
2022/03/03 05:28:24;;;;;;;15.98;10.38;;;0.90;99.90;;;;;;4908019;29;20407;-89
2022/03/03 05:30:50;;;;;;;17.08;10.30;;;0.90;99.90;;;;;;4893019;29;20045;-89
2022/03/03 05:33:15;;;;;;;16.30;10.35;;;0.90;99.90;;;;;;4886410;29;20024;-91
2022/03/03 05:35:47;;;;;;;14.95;9.90;;;0.90;99.90;;;;;;4883925;29;20050;-90
2022/03/03 05:38:13;;;;;;;16.92;10.35;;;0.80;99.90;;;;;;4884189;29;20052;-91
2022/03/03 05:40:38;;;;;;;16.02;9.70;;;0.80;99.90;;;;;;4867881;29;20041;-89
2022/03/03 05:43:04;;;;;;;17.27;10.27;;;0.80;99.90;;;;;;4899731;29;20400;-89
2022/03/03 05:45:32;;;;;;;14.52;9.93;;;0.80;99.90;;;;;;4883666;29;20631;-88
2022/03/03 05:47:59;;;;;;;15.15;9.32;;;0.80;99.90;;;;;;4887078;29;20032;-85
2022/03/03 05:50:25;;;;;;;14.73;9.57;;;0.70;99.90;;;;;;4895715;29;20078;-87
2022/03/03 05:52:51;;;;;;;15.18;9.68;;;0.70;99.90;;;;;;4889367;29;20041;-88
2022/03/03 05:55:18;;;;;;;14.80;9.52;;;0.70;99.90;;;;;;4889821;29;20037;-88
2022/03/03 05:57:45;;;;;;;16.27;9.95;;;0.70;99.90;;;;;;4873824;29;20041;-89
2022/03/03 06:00:14;;;;;;;14.50;9.07;;;0.70;99.90;;;;;;4890342;29;20040;-89
2022/03/03 06:05:13;;;;;;;14.38;9.07;;;0.60;99.90;;;;;;4890208;29;20061;-90
2022/03/03 06:07:45;;;;;;;17.25;9.93;;;0.60;99.90;;;;;;4869155;29;20635;-90
2022/03/03 06:10:31;;;;;;;17.52;10.30;;;0.60;99.90;;;;;;4869003;29;20052;-92
2022/03/03 06:13:30;;;;;;;15.02;9.85;;;0.60;99.90;;;;;;4889177;23;20057;-90
2022/03/03 06:16:05;;;;;;;17.80;10.32;;;0.50;99.90;;;;;;4857139;29;20053;-89
2022/03/03 06:18:33;;;;;;;18.88;10.77;;;0.60;99.90;;;;;;4856300;29;20109;-90
2022/03/03 06:21:00;;;;;;;16.33;10.13;;;0.50;99.90;;;;;;4855055;29;20041;-89
2022/03/03 06:23:27;;;;;;;16.45;10.73;;;0.50;99.90;;;;;;4844249;29;20144;-90
2022/03/03 06:26:08;;;;;;;15.35;10.18;;;0.50;99.90;;;;;;4855699;29;20492;-89
2022/03/03 06:28:35;;;;;;;17.77;10.68;;;0.50;99.90;;;;;;4841632;29;20038;-90
2022/03/03 06:31:00;;;;;;;16.73;10.60;;;0.60;99.90;;;;;;4856786;29;20102;-89
2022/03/03 06:33:28;;;;;;;17.13;11.45;;;0.50;99.90;;;;;;4873036;29;20029;-88
2022/03/03 06:35:55;;;;;;;17.55;10.77;;;0.50;99.90;;;;;;4856824;29;20049;-88
2022/03/03 06:38:22;;;;;;;17.42;10.55;;;0.60;99.90;;;;;;4856886;29;20061;-89
2022/03/03 06:40:49;;;;;;;16.60;10.55;;;0.60;99.90;;;;;;4856520;29;20034;-89
2022/03/03 06:43:15;;;;;;;17.17;10.70;;;0.60;99.90;;;;;;4840743;29;20041;-89
2022/03/03 06:45:44;;;;;;;18.63;11.40;;;0.60;99.90;;;;;;4856879;29;20038;-89
2022/03/03 06:48:13;;;;;;;18.40;10.57;;;0.60;99.90;;;;;;4840436;29;20109;-91
2022/03/03 06:50:42;;;;;;;17.45;10.88;;;0.60;99.90;;;;;;4845033;29;20056;-90
2022/03/03 06:53:17;;;;;;;18.00;11.00;;;0.70;99.90;;;;;;4845166;29;20040;-90
2022/03/03 06:55:49;;;;;;;16.23;10.10;;;0.60;99.90;;;;;;4876788;29;20037;-90
2022/03/03 06:58:17;;;;;;;16.10;11.02;;;0.70;99.90;;;;;;4856016;29;20048;-91
2022/03/03 07:00:51;;;;;;;15.23;10.23;;;0.70;99.90;;;;;;4860198;29;20165;-90
2022/03/03 07:03:16;;;;;;;18.00;11.13;;;0.70;99.90;;;;;;4860312;29;20496;-90
2022/03/03 07:05:43;;;;;;;15.95;10.27;;;0.70;99.90;;;;;;4859672;29;20042;-91
2022/03/03 07:08:11;;;;;;;15.70;10.18;;;0.80;99.90;;;;;;4873818;29;20057;-92
2022/03/03 07:10:41;;;;;;;14.45;9.57;;;0.80;99.90;;;;;;4854826;29;20037;-93
2022/03/03 07:13:17;;;;;;;16.38;10.18;;;0.80;99.90;;;;;;4858698;29;20038;-90
2022/03/03 07:15:54;;;;;;;17.20;10.55;;;0.90;99.90;;;;;;4877252;29;20053;-89
2022/03/03 07:18:27;;;;;;;17.92;11.18;;;0.90;99.90;;;;;;4865412;29;20062;-89
2022/03/03 07:21:04;;;;;;;17.52;11.27;;;0.90;99.90;;;;;;4857690;29;20044;-89
2022/03/03 07:23:42;;;;;;;17.23;11.10;;;1.00;99.90;;;;;;4874324;29;20045;-91
2022/03/03 07:26:10;;;;;;;18.25;10.63;;;1.10;99.90;;;;;;4852045;29;20033;-90
2022/03/03 07:28:40;;;;;;;17.27;10.65;;;1.10;99.90;;;;;;4855546;29;20041;-91
2022/03/03 07:31:08;;;;;;;19.60;10.75;;;1.20;99.90;;;;;;4852542;29;20105;-93
2022/03/03 07:33:46;;;;;;;18.13;10.88;;;1.20;99.90;;;;;;4856071;29;20093;-91
2022/03/03 07:36:24;;;;;;;16.08;10.10;;;1.30;99.90;;;;;;4857648;29;20109;-91
2022/03/03 07:38:58;;;;;;;17.48;10.63;;;1.40;99.90;;;;;;4874772;29;20041;-90
2022/03/03 07:41:25;;;;;;;;;;;1.50;99.90;;;;;;4858778;29;20494;-91
2022/03/03 07:43:53;;;;;;;18.77;10.80;;;1.50;99.90;;;;;;4876549;29;20336;-91
2022/03/03 07:46:29;;;;;;;17.50;10.27;;;1.60;99.90;;;;;;4874012;29;20038;-90
2022/03/03 07:48:56;;;;;;;14.38;9.38;;;1.80;99.90;;;;;;4858371;29;20091;-91
2022/03/03 07:56:40;;;;;;;18.67;11.48;;;2.00;99.90;;;;;;4985153;23;20083;-92
2022/03/03 07:59:09;;;;;;;;;;;2.20;99.90;;;;;;4909682;29;20048;-90
2022/03/03 08:01:35;;;;;;;16.70;10.63;;;2.30;99.90;;;;;;4912177;29;19907;-90
2022/03/03 08:04:11;;;;;;;15.70;10.07;;;2.50;99.90;;;;;;4913353;29;20040;-94
2022/03/03 08:06:39;;;;;;;16.58;10.60;;;2.60;99.90;;;;;;5002664;23;20053;-91
2022/03/03 08:09:09;;;;;;;17.88;10.88;;;2.70;99.90;;;;;;4910650;29;20118;-91
2022/03/03 08:11:41;;;;;;;15.77;10.13;;;2.90;99.90;;;;;;4896636;29;20040;-90
2022/03/03 08:14:11;;;;;;;15.65;9.95;;;3.10;99.90;;;;;;4909813;29;20039;-87
2022/03/03 08:16:45;;;;;;;18.40;11.68;;;3.20;99.90;;;;;;4894460;29;20039;-90
2022/03/03 08:19:14;;;;;;;19.58;12.25;;;3.30;99.90;;;;;;4894235;29;20049;-92
2022/03/03 08:21:44;;;;;;;16.55;11.57;;;3.40;99.90;;;;;;4972055;23;20033;-90
2022/03/03 08:24:12;;;;;;;16.98;10.73;;;3.40;99.90;;;;;;4875317;29;20072;-89
2022/03/03 08:26:40;;;;;;;16.70;10.65;;;3.40;99.90;;;;;;4906408;23;20033;-86
2022/03/03 08:29:06;;;;;;;14.20;10.18;;;3.50;99.90;;;;;;4917581;29;20040;-87
2022/03/03 08:31:40;;;;;;;17.33;11.13;;;3.50;99.90;;;;;;4914027;29;20487;-88
2022/03/03 08:34:37;;;;;;;14.55;9.73;;;3.50;99.90;;;;;;4911394;29;20037;-87
2022/03/03 08:37:07;;;;;;;13.38;8.98;;;3.60;99.90;;;;;;4911125;29;20056;-88
2022/03/03 08:39:42;;;;;;;15.70;10.27;;;3.60;99.90;;;;;;4911105;29;20502;-88
2022/03/03 08:42:16;;;;;;;16.75;10.73;;;3.60;99.90;;;;;;4894875;29;20037;-89
2022/03/03 08:44:44;;;;;;;15.30;10.02;;;3.70;99.90;;;;;;4912526;29;20064;-87
2022/03/03 08:47:16;;;;;;;17.17;12.23;;;3.80;99.90;;;;;;4875150;29;20197;-92
2022/03/03 08:49:44;;;;;;;15.68;11.07;;;3.80;99.90;;;;;;4903555;29;20032;-90
2022/03/03 08:52:12;;;;;;;19.00;12.10;;;3.90;99.90;;;;;;4903450;29;20037;-91
2022/03/03 08:54:38;;;;;;;19.15;12.65;;;4.00;99.90;;;;;;4887894;29;20069;-92
2022/03/03 08:57:04;;;;;;;18.48;12.93;;;4.10;99.90;;;;;;4902113;29;20044;-91
2022/03/03 08:59:31;;;;;;;17.15;11.73;;;4.10;99.90;;;;;;4902280;29;20043;-91
2022/03/03 09:02:13;;;;;;;18.55;12.35;;;4.20;99.90;;;;;;4887686;29;20032;-91
2022/03/03 09:04:39;;;;;;;17.48;11.55;;;4.30;99.90;;;;;;4901983;29;20447;-91
2022/03/03 09:07:05;;;;;;;16.48;10.98;;;4.40;99.90;;;;;;4886035;29;20027;-91
2022/03/03 09:09:31;;;;;;;17.40;11.70;;;4.40;99.90;;;;;;4871348;29;20041;-90
2022/03/03 09:11:56;;;;;;;19.15;12.18;;;4.50;99.90;;;;;;4885836;29;20052;-91
2022/03/03 09:14:22;;;;;;;19.88;13.15;;;4.60;99.90;;;;;;4886460;29;20388;-90
2022/03/03 09:16:49;;;;;;;21.17;13.52;;;4.70;99.90;;;;;;4887598;29;20029;-90
2022/03/03 09:19:15;;;;;;;18.52;11.98;;;4.70;99.90;;;;;;4885452;29;20033;-90
2022/03/03 09:21:40;;;;;;;17.83;12.18;;;4.80;99.90;;;;;;4887004;29;20037;-90
2022/03/03 09:24:06;;;;;;;17.60;12.55;;;4.80;99.90;;;;;;4887889;29;20076;-92
2022/03/03 09:26:32;;;;;;;21.60;13.60;;;4.90;99.90;;;;;;4888155;29;20131;-91
2022/03/03 09:28:58;;;;;;;19.23;12.85;;;5.00;99.90;;;;;;4886308;29;20055;-90
2022/03/03 09:31:40;;;;;;;20.08;12.40;;;5.10;99.90;;;;;;4894964;29;20049;-89
2022/03/03 09:34:23;;;;;;;19.27;12.93;;;5.20;99.90;;;;;;4907594;29;20365;-91
2022/03/03 09:36:49;;;;;;;17.00;12.20;;;5.90;99.90;;;;;;4884956;29;20036;-91
2022/03/03 09:39:15;;;;;;;17.63;12.00;;;7.60;99.90;;;;;;4885389;29;20028;-91
2022/03/03 09:41:40;;;;;;;18.70;13.18;;;9.20;99.90;;;;;;4888055;29;20506;-90
2022/03/03 09:44:06;;;;;;;19.00;12.30;;;10.80;99.90;;;;;;4885696;29;20036;-93
2022/03/03 09:46:36;;;;;;;14.48;10.93;;;12.00;99.90;;;;;;4884561;29;20049;-91
2022/03/03 09:49:03;;;;;;;14.35;10.88;;;13.00;99.90;;;;;;4884172;29;20059;-88
2022/03/03 09:51:29;;;;;;;15.98;11.77;;;14.00;99.90;;;;;;4900320;29;20487;-90
2022/03/03 09:53:55;;;;;;;19.17;12.73;;;14.70;99.40;;;;;;4899518;29;20093;-92
2022/03/03 09:56:22;;;;;;;14.38;11.50;;;15.20;97.30;;;;;;4885277;29;20036;-92
2022/03/03 09:58:48;;;;;;;14.95;11.50;;;15.70;96.50;;;;;;4900929;29;20037;-91
2022/03/03 10:01:14;;;;;;;16.38;11.27;;;16.10;95.70;;;;;;4884375;29;20435;-92
2022/03/03 10:03:41;;;;;;;15.80;12.05;;;16.50;94.70;;;;;;4885558;29;20123;-91
2022/03/03 10:06:10;;;;;;;14.35;11.02;;;16.90;93.10;;;;;;4884597;29;20037;-91
2022/03/03 10:08:37;;;;;;;14.55;11.40;;;17.10;92.40;;;;;;4900340;29;20040;-92
2022/03/03 10:11:03;;;;;;;12.98;10.45;;;17.40;90.80;;;;;;4884720;29;20523;-90
2022/03/03 10:13:51;;;;;;;11.77;9.75;;;17.60;90.60;;;;;;4901065;29;20037;-89
2022/03/03 10:16:26;;;;;;;12.27;10.05;;;18.10;89.70;;;;;;4893313;29;20028;-90
2022/03/03 10:19:03;;;;;;;14.98;10.65;;;18.40;87.30;;;;;;4894732;29;20073;-92
2022/03/03 10:21:30;;;;;;;12.65;9.05;;;18.60;84.30;;;;;;4905138;29;20032;-90
2022/03/03 10:23:57;;;;;;;13.32;10.55;;;18.50;82.80;;;;;;4906794;29;20065;-92
2022/03/03 10:26:34;;;;;;;11.68;10.25;;;18.70;81.20;;;;;;4903931;29;20040;-90
2022/03/03 10:29:00;;;;;;;12.20;10.40;;;18.90;80.80;;;;;;4901463;29;20100;-91
2022/03/03 10:31:27;;;;;;;14.45;12.25;;;19.00;79.30;;;;;;4883883;29;20135;-90
2022/03/03 10:33:53;;;;;;;13.27;10.55;;;19.10;76.50;;;;;;4885900;29;20029;-90
2022/03/03 10:36:24;;;;;;;14.93;11.65;;;19.20;77.00;;;;;;4900593;29;20080;-90
2022/03/03 10:39:18;;;;;;;12.90;10.35;;;19.50;76.10;;;;;;4903285;29;20033;-88
2022/03/03 10:41:46;;;;;;;14.88;10.82;;;19.50;75.50;;;;;;4875803;29;20072;-90
2022/03/03 10:44:21;;;;;;;13.68;10.77;;;19.50;74.10;;;;;;4901668;29;20467;-91
2022/03/03 10:47:05;;;;;;;17.42;14.77;;;19.60;73.20;;;;;;4904041;29;20047;-92
2022/03/03 10:49:32;;;;;;;13.55;12.15;;;19.70;69.20;;;;;;4900522;29;20040;-91
2022/03/03 10:52:27;;;;;;;14.23;12.13;;;19.80;71.40;;;;;;4869646;29;20056;-90
2022/03/03 10:55:14;;;;;;;14.55;11.68;;;20.00;70.90;;;;;;4909940;29;20032;-90
2022/03/03 10:58:00;;;;;;;14.57;12.05;;;20.30;70.80;;;;;;4901932;29;20123;-93
2022/03/03 11:00:34;;;;;;;15.40;11.98;;;20.40;70.00;;;;;;4891325;29;20052;-88
2022/03/03 11:03:04;;;;;;;12.35;11.05;;;20.40;69.00;;;;;;4909467;29;20048;-89
2022/03/03 11:05:30;;;;;;;13.05;10.25;;;20.40;69.10;;;;;;4910774;29;20029;-89
2022/03/03 11:07:59;;;;;;;11.13;9.73;;;20.50;69.90;;;;;;4914252;29;20068;-91
2022/03/03 11:10:27;;;;;;;11.57;9.77;;;20.90;69.10;;;;;;4901713;29;20037;-89
2022/03/03 11:12:53;;;;;;;11.90;9.73;;;21.30;68.50;;;;;;4908140;29;20032;-91
2022/03/03 11:15:32;;;;;;;11.02;9.27;;;21.30;68.10;;;;;;4894757;29;20032;-90
2022/03/03 11:18:00;;;;;;;10.60;8.85;;;21.40;66.80;;;;;;4916099;29;20400;-88
2022/03/03 11:20:31;;;;;;;12.18;9.43;;;21.50;67.20;;;;;;4902992;29;20028;-90
2022/03/03 11:22:57;;;;;;;10.88;9.20;;;21.70;66.50;;;;;;4904187;29;20033;-92
2022/03/03 11:25:31;;;;;;;10.23;9.15;;;21.70;66.20;;;;;;4919516;29;20025;-90
2022/03/03 11:28:15;;;;;;;10.90;9.25;;;21.80;65.50;;;;;;4917734;29;20131;-89
2022/03/03 11:31:08;;;;;;;9.63;8.60;;;21.80;64.50;;;;;;4885551;29;20114;-89
2022/03/03 11:33:38;;;;;;;9.98;8.27;;;21.60;63.90;;;;;;4901991;29;20045;-89
2022/03/03 11:36:06;;;;;;;11.07;9.82;;;21.70;63.60;;;;;;4901484;29;20043;-89
2022/03/03 11:39:01;;;;;;;10.93;8.75;;;21.60;61.10;;;;;;4917725;29;20036;-88
2022/03/03 11:41:50;;;;;;;12.27;9.45;;;21.50;61.60;;;;;;4962221;23;20053;-89
2022/03/03 11:44:15;;;;;;;11.35;10.15;;;21.40;59.90;;;;;;4885212;29;20105;-89
2022/03/03 11:46:49;;;;;;;10.43;8.55;;;21.20;59.40;;;;;;4896350;29;20033;-90
2022/03/03 11:49:27;;;;;;;9.85;8.85;;;21.20;60.40;;;;;;4875551;29;20029;-93
2022/03/03 11:52:08;;;;;;;9.43;8.20;;;21.20;59.70;;;;;;4882808;29;20108;-95
2022/03/03 11:54:34;;;;;;;10.48;8.63;;;21.40;59.70;;;;;;4851153;29;20046;-93
2022/03/03 11:57:03;;;;;;;9.45;8.07;;;21.60;60.40;;;;;;4871973;29;20040;-93
2022/03/03 11:59:45;;;;;;;10.02;8.65;;;21.90;60.30;;;;;;4871588;29;20079;-92
2022/03/03 12:02:18;;;;;;;8.65;7.55;;;22.20;58.20;;;;;;4875698;29;20041;-91
2022/03/03 12:05:12;;;;;;;9.55;8.55;;;22.30;58.90;;;;;;4847761;29;20036;-93
2022/03/03 12:07:41;;;;;;;9.77;8.20;;;22.30;58.10;;;;;;4894007;29;20045;-91
2022/03/03 12:10:19;;;;;;;9.23;8.27;;;22.30;58.20;;;;;;4891315;29;20109;-92
2022/03/03 12:12:49;;;;;;;9.88;8.88;;;22.70;56.70;;;;;;4899333;29;20373;-90
2022/03/03 12:15:17;;;;;;;10.35;8.60;;;22.70;56.60;;;;;;4901982;29;20037;-92
2022/03/03 12:17:58;;;;;;;9.40;8.40;;;22.70;56.80;;;;;;4880614;29;20059;-91
2022/03/03 12:20:37;;;;;;;9.38;8.35;;;22.90;57.10;;;;;;4916473;23;20116;-91
2022/03/03 12:23:19;;;;;;;13.77;10.27;;;22.80;56.00;;;;;;4875902;29;20383;-93
2022/03/03 12:25:51;;;;;;;8.68;7.78;;;22.80;56.00;;;;;;4890911;29;20113;-94
2022/03/03 12:28:47;;;;;;;9.65;8.65;;;22.90;56.60;;;;;;4873634;29;20094;-92
2022/03/03 12:31:36;;;;;;;9.68;8.68;;;23.20;57.00;;;;;;4888205;29;20086;-90
2022/03/03 12:34:06;;;;;;;9.20;8.25;;;23.30;56.70;;;;;;4874816;29;20450;-91
2022/03/03 12:36:37;;;;;;;8.32;7.53;;;23.30;57.30;;;;;;4884109;29;20033;-91
2022/03/03 12:39:04;;;;;;;9.35;8.30;;;23.20;55.10;;;;;;4860924;29;20097;-92
2022/03/03 12:41:39;;;;;;;8.75;7.45;;;23.10;55.00;;;;;;4871687;29;20097;-90
2022/03/03 12:44:13;;;;;;;10.95;7.97;;;23.20;55.00;;;;;;5070813;23;20061;-89
2022/03/03 12:46:51;;;;;;;9.55;8.02;;;23.30;54.70;;;;;;4941564;23;20161;-89
2022/03/03 12:49:44;;;;;;;10.25;8.93;;;23.30;53.90;;;;;;4895752;23;20186;-89
2022/03/03 12:52:47;;;;;;;9.35;8.45;;;23.30;52.50;;;;;;4878399;29;20083;-89
2022/03/03 12:55:18;;;;;;;8.48;7.57;;;23.30;53.40;;;;;;4912295;29;20047;-89
2022/03/03 12:57:55;;;;;;;8.88;7.38;;;23.60;54.20;;;;;;4898078;29;20492;-90
2022/03/03 13:03:02;;;;;;;9.25;8.35;;;23.80;54.20;;;;;;4938501;23;20056;-90
2022/03/03 13:05:41;;;;;;;8.75;7.30;;;23.80;52.10;;;;;;4901481;29;20048;-90
2022/03/03 13:08:19;;;;;;;7.35;6.60;;;23.60;52.00;;;;;;4884568;29;20128;-93
2022/03/03 13:10:46;;;;;;;9.30;7.57;;;23.70;52.40;;;;;;4872108;29;20044;-91
2022/03/03 13:13:12;;;;;;;9.57;7.07;;;23.60;52.10;;;;;;4907624;29;20029;-91
2022/03/03 13:15:39;;;;;;;7.65;6.88;;;23.60;52.10;;;;;;4887916;29;20033;-90
2022/03/03 13:18:10;;;;;;;7.78;6.85;;;23.70;51.80;;;;;;4887861;29;20369;-91
2022/03/03 13:20:57;;;;;;;7.95;6.32;;;23.70;52.30;;;;;;4893986;29;20040;-92
2022/03/03 13:23:27;;;;;;;7.28;5.93;;;23.60;52.60;;;;;;4895074;29;20135;-91
2022/03/03 13:26:10;;;;;;;7.63;6.50;;;23.70;52.40;;;;;;4903377;29;20462;-92
2022/03/03 13:28:42;;;;;;;7.13;6.27;;;24.00;51.90;;;;;;4877032;29;20444;-91
2022/03/03 13:31:08;;;;;;;7.93;6.93;;;24.00;51.90;;;;;;4878846;29;20145;-92
2022/03/03 13:33:51;;;;;;;7.65;6.65;;;24.00;51.70;;;;;;4900743;29;20032;-92
2022/03/03 13:36:19;;;;;;;8.18;7.03;;;24.10;50.50;;;;;;4880349;29;20037;-91
2022/03/03 13:38:46;;;;;;;7.20;6.43;;;24.00;50.60;;;;;;4862212;29;20033;-92
2022/03/03 13:41:37;;;;;;;6.97;6.22;;;24.10;51.20;;;;;;4870867;29;20033;-92
2022/03/03 13:44:21;;;;;;;7.80;6.97;;;24.40;50.50;;;;;;4896374;29;20081;-92
2022/03/03 13:47:04;;;;;;;6.43;5.72;;;24.30;49.90;;;;;;4895074;29;20032;-92
2022/03/03 13:50:02;;;;;;;7.82;5.68;;;24.30;50.40;;;;;;4904095;29;20487;-92
2022/03/03 13:52:28;;;;;;;7.55;6.40;;;24.40;49.80;;;;;;4903974;29;20055;-94
2022/03/03 13:54:58;;;;;;;6.25;5.65;;;24.10;51.50;;;;;;4902680;29;20056;-93
2022/03/03 13:57:46;;;;;;;8.35;7.05;;;24.30;50.70;;;;;;4890473;29;20040;-92
2022/03/03 14:00:29;;;;;;;8.73;5.32;;;24.30;48.20;;;;;;4879682;29;20029;-92
2022/03/03 14:03:02;;;;;;;9.70;7.55;;;24.20;48.90;;;;;;4870651;29;20056;-92
2022/03/03 14:05:44;;;;;;;7.55;6.28;;;24.10;48.60;;;;;;4902277;29;20028;-92
2022/03/03 14:08:41;;;;;;;7.90;6.53;;;23.80;48.30;;;;;;4884236;29;20041;-94
2022/03/03 14:11:11;;;;;;;7.05;6.00;;;23.60;48.20;;;;;;4864384;29;20133;-92
2022/03/03 14:13:49;;;;;;;6.68;5.32;;;23.40;47.90;;;;;;4880150;29;20069;-92
2022/03/03 14:16:16;;;;;;;7.07;5.63;;;23.20;49.70;;;;;;4915063;29;20521;-92
2022/03/03 14:18:43;;;;;;;6.70;5.63;;;22.90;49.70;;;;;;4883868;29;20033;-92
2022/03/03 14:21:09;;;;;;;7.35;5.80;;;22.00;50.20;;;;;;4882972;29;20036;-90
2022/03/03 14:23:35;;;;;;;7.43;6.57;;;21.00;51.60;;;;;;4882509;29;20025;-91
2022/03/03 14:26:06;;;;;;;8.57;6.88;;;19.90;51.10;;;;;;4897088;29;20039;-92
2022/03/03 14:28:33;;;;;;;7.85;6.82;;;18.90;52.00;;;;;;4901609;29;20060;-92